sensor_id;sensor_type;location;lat;lon;timestamp;pressure;altitude;pressure_sealevel;temperature;humidity
66880;BME280;72009;51.392;10.234;2024-02-26T00:00:17;96760.09;;;1.08;100.00
66880;BME280;72009;51.392;10.234;2024-02-26T00:00:37;96765.78;;;1.07;100.00
66880;BME280;72009;51.392;10.234;2024-02-26T00:00:57;96763.09;;;1.07;100.00
66880;BME280;72009;51.392;10.234;2024-02-26T00:01:18;96757.66;;;1.07;100.00
66880;BME280;72009;51.392;10.234;2024-02-26T00:01:39;96767.69;;;1.06;100.00
66880;BME280;72009;51.392;10.234;2024-02-26T00:01:59;96758.78;;;1.06;100.00
66880;BME280;72009;51.392;10.234;2024-02-26T00:02:19;96762.28;;;1.06;100.00
66880;BME280;72009;51.392;10.234;2024-02-26T00:02:40;96761.50;;;1.06;100.00
66880;BME280;72009;51.392;10.234;2024-02-26T00:03:00;96759.59;;;1.06;100.00
66880;BME280;72009;51.392;10.234;2024-02-26T00:03:21;96756.88;;;1.06;100.00
66880;BME280;72009;51.392;10.234;2024-02-26T00:03:41;96759.59;;;1.06;100.00
66880;BME280;72009;51.392;10.234;2024-02-26T00:04:01;96765.78;;;1.07;100.00
66880;BME280;72009;51.392;10.234;2024-02-26T00:04:22;96764.19;;;1.06;100.00
66880;BME280;72009;51.392;10.234;2024-02-26T00:04:42;96762.84;;;1.03;100.00
66880;BME280;72009;51.392;10.234;2024-02-26T00:05:05;96765.56;;;1.03;100.00
66880;BME280;72009;51.392;10.234;2024-02-26T00:05:25;96757.44;;;1.03;100.00
66880;BME280;72009;51.392;10.234;2024-02-26T00:05:46;96763.13;;;1.02;100.00
66880;BME280;72009;51.392;10.234;2024-02-26T00:06:06;96763.13;;;1.02;100.00
66880;BME280;72009;51.392;10.234;2024-02-26T00:06:26;96760.44;;;1.02;100.00
66880;BME280;72009;51.392;10.234;2024-02-26T00:06:46;96756.09;;;1.01;100.00
66880;BME280;72009;51.392;10.234;2024-02-26T00:07:07;96757.16;;;1.00;100.00
66880;BME280;72009;51.392;10.234;2024-02-26T00:07:27;96758.81;;;1.01;100.00
66880;BME280;72009;51.392;10.234;2024-02-26T00:07:47;96758.00;;;1.00;100.00
66880;BME280;72009;51.392;10.234;2024-02-26T00:08:08;96758.81;;;1.01;100.00
66880;BME280;72009;51.392;10.234;2024-02-26T00:08:28;96762.59;;;1.00;100.00
66880;BME280;72009;51.392;10.234;2024-02-26T00:08:48;96758.28;;;0.99;100.00
66880;BME280;72009;51.392;10.234;2024-02-26T00:09:10;96761.00;;;0.99;100.00
66880;BME280;72009;51.392;10.234;2024-02-26T00:09:30;96755.56;;;0.99;100.00
66880;BME280;72009;51.392;10.234;2024-02-26T00:09:50;96761.00;;;0.99;100.00
66880;BME280;72009;51.392;10.234;2024-02-26T00:10:11;96765.28;;;1.00;100.00
66880;BME280;72009;51.392;10.234;2024-02-26T00:10:31;96754.47;;;1.00;100.00
66880;BME280;72009;51.392;10.234;2024-02-26T00:10:51;96756.09;;;1.01;100.00
66880;BME280;72009;51.392;10.234;2024-02-26T00:11:12;96751.75;;;1.00;100.00
66880;BME280;72009;51.392;10.234;2024-02-26T00:11:32;96748.75;;;1.01;100.00
66880;BME280;72009;51.392;10.234;2024-02-26T00:11:52;96755.28;;;1.00;100.00
66880;BME280;72009;51.392;10.234;2024-02-26T00:12:13;96752.59;;;1.00;100.00
66880;BME280;72009;51.392;10.234;2024-02-26T00:12:33;96755.28;;;1.00;100.00
66880;BME280;72009;51.392;10.234;2024-02-26T00:12:53;96750.69;;;1.01;100.00
66880;BME280;72009;51.392;10.234;2024-02-26T00:13:13;96753.09;;;1.02;100.00
66880;BME280;72009;51.392;10.234;2024-02-26T00:13:34;96745.78;;;1.03;100.00
66880;BME280;72009;51.392;10.234;2024-02-26T00:13:54;96746.59;;;1.03;100.00
66880;BME280;72009;51.392;10.234;2024-02-26T00:14:14;96752.81;;;1.04;100.00
66880;BME280;72009;51.392;10.234;2024-02-26T00:14:35;96750.09;;;1.04;100.00
66880;BME280;72009;51.392;10.234;2024-02-26T00:14:55;96754.44;;;1.05;100.00
66880;BME280;72009;51.392;10.234;2024-02-26T00:15:15;96746.31;;;1.05;100.00
66880;BME280;72009;51.392;10.234;2024-02-26T00:15:36;96747.41;;;1.04;100.00
66880;BME280;72009;51.392;10.234;2024-02-26T00:15:56;96747.41;;;1.04;100.00
66880;BME280;72009;51.392;10.234;2024-02-26T00:16:16;96749.31;;;1.03;100.00
66880;BME280;72009;51.392;10.234;2024-02-26T00:16:40;96750.09;;;1.04;100.00
66880;BME280;72009;51.392;10.234;2024-02-26T00:17:00;96747.41;;;1.04;100.00
66880;BME280;72009;51.392;10.234;2024-02-26T00:17:21;96745.53;;;1.04;100.00
66880;BME280;72009;51.392;10.234;2024-02-26T00:17:41;96751.75;;;1.05;100.00
66880;BME280;72009;51.392;10.234;2024-02-26T00:18:01;96746.59;;;1.03;100.00
66880;BME280;72009;51.392;10.234;2024-02-26T00:18:22;96749.59;;;1.02;100.00
66880;BME280;72009;51.392;10.234;2024-02-26T00:18:42;96752.31;;;1.02;100.00
66880;BME280;72009;51.392;10.234;2024-02-26T00:19:02;96753.09;;;1.02;100.00
66880;BME280;72009;51.392;10.234;2024-02-26T00:19:23;96752.81;;;1.04;100.00
66880;BME280;72009;51.392;10.234;2024-02-26T00:19:43;96757.44;;;1.03;100.00
66880;BME280;72009;51.392;10.234;2024-02-26T00:20:04;96748.47;;;1.03;100.00
66880;BME280;72009;51.392;10.234;2024-02-26T00:20:24;96747.69;;;1.02;100.00
66880;BME280;72009;51.392;10.234;2024-02-26T00:20:45;96747.16;;;1.00;100.00
66880;BME280;72009;51.392;10.234;2024-02-26T00:21:05;96749.59;;;1.02;100.00
66880;BME280;72009;51.392;10.234;2024-02-26T00:21:25;96744.47;;;1.00;100.00
66880;BME280;72009;51.392;10.234;2024-02-26T00:21:46;96743.34;;;1.01;100.00
66880;BME280;72009;51.392;10.234;2024-02-26T00:22:06;96744.97;;;1.02;100.00
66880;BME280;72009;51.392;10.234;2024-02-26T00:22:26;96738.75;;;1.02;100.00
66880;BME280;72009;51.392;10.234;2024-02-26T00:22:47;96743.34;;;1.01;100.00
66880;BME280;72009;51.392;10.234;2024-02-26T00:23:07;96743.34;;;1.01;100.00
66880;BME280;72009;51.392;10.234;2024-02-26T00:23:27;96742.28;;;1.02;100.00
66880;BME280;72009;51.392;10.234;2024-02-26T00:23:49;96742.00;;;1.04;100.00
66880;BME280;72009;51.392;10.234;2024-02-26T00:24:10;96740.91;;;1.05;100.00
66880;BME280;72009;51.392;10.234;2024-02-26T00:24:30;96744.69;;;1.04;100.00
66880;BME280;72009;51.392;10.234;2024-02-26T00:24:50;96745.78;;;1.03;100.00
66880;BME280;72009;51.392;10.234;2024-02-26T00:25:11;96735.78;;;1.03;100.00
66880;BME280;72009;51.392;10.234;2024-02-26T00:25:31;96740.09;;;1.04;100.00
66880;BME280;72009;51.392;10.234;2024-02-26T00:25:51;96742.81;;;1.04;100.00
66880;BME280;72009;51.392;10.234;2024-02-26T00:26:12;96740.91;;;1.05;100.00
66880;BME280;72009;51.392;10.234;2024-02-26T00:26:32;96736.56;;;1.04;100.00
66880;BME280;72009;51.392;10.234;2024-02-26T00:26:52;96736.28;;;1.05;100.00
66880;BME280;72009;51.392;10.234;2024-02-26T00:27:12;96740.63;;;1.06;100.00
66880;BME280;72009;51.392;10.234;2024-02-26T00:27:33;96733.59;;;1.05;100.00
66880;BME280;72009;51.392;10.234;2024-02-26T00:27:53;96738.72;;;1.07;100.00
66880;BME280;72009;51.392;10.234;2024-02-26T00:28:13;96727.88;;;1.07;100.00
66880;BME280;72009;51.392;10.234;2024-02-26T00:28:34;96736.00;;;1.07;100.00
66880;BME280;72009;51.392;10.234;2024-02-26T00:28:54;96738.44;;;1.08;100.00
66880;BME280;72009;51.392;10.234;2024-02-26T00:29:14;96731.41;;;1.07;100.00
66880;BME280;72009;51.392;10.234;2024-02-26T00:29:34;96734.94;;;1.08;100.00
66880;BME280;72009;51.392;10.234;2024-02-26T00:29:55;96743.06;;;1.08;100.00
66880;BME280;72009;51.392;10.234;2024-02-26T00:30:15;96736.56;;;1.09;100.00
66880;BME280;72009;51.392;10.234;2024-02-26T00:30:35;96734.94;;;1.08;100.00
66880;BME280;72009;51.392;10.234;2024-02-26T00:30:56;96734.94;;;1.08;100.00
66880;BME280;72009;51.392;10.234;2024-02-26T00:31:16;96733.00;;;1.08;100.00
66880;BME280;72009;51.392;10.234;2024-02-26T00:31:37;96729.22;;;1.09;100.00
66880;BME280;72009;51.392;10.234;2024-02-26T00:31:57;96726.50;;;1.09;100.00
66880;BME280;72009;51.392;10.234;2024-02-26T00:32:18;96730.84;;;1.10;100.00
66880;BME280;72009;51.392;10.234;2024-02-26T00:32:38;96728.16;;;1.10;100.00
66880;BME280;72009;51.392;10.234;2024-02-26T00:32:58;96730.84;;;1.10;100.00
66880;BME280;72009;51.392;10.234;2024-02-26T00:33:19;96722.44;;;1.12;100.00
66880;BME280;72009;51.392;10.234;2024-02-26T00:33:39;96715.41;;;1.11;100.00
66880;BME280;72009;51.392;10.234;2024-02-26T00:34:00;96728.66;;;1.13;100.00
66880;BME280;72009;51.392;10.234;2024-02-26T00:34:20;96729.47;;;1.13;100.00
66880;BME280;72009;51.392;10.234;2024-02-26T00:34:40;96726.47;;;1.15;100.00
66880;BME280;72009;51.392;10.234;2024-02-26T00:35:01;96725.66;;;1.14;100.00
66880;BME280;72009;51.392;10.234;2024-02-26T00:35:21;96719.72;;;1.12;100.00
66880;BME280;72009;51.392;10.234;2024-02-26T00:35:41;96723.53;;;1.11;100.00
66880;BME280;72009;51.392;10.234;2024-02-26T00:36:02;96720.03;;;1.10;100.00
66880;BME280;72009;51.392;10.234;2024-02-26T00:36:22;96720.81;;;1.11;100.00
66880;BME280;72009;51.392;10.234;2024-02-26T00:36:43;96720.03;;;1.10;100.00
66880;BME280;72009;51.392;10.234;2024-02-26T00:37:03;96722.72;;;1.10;100.00
66880;BME280;72009;51.392;10.234;2024-02-26T00:37:23;96728.16;;;1.10;100.00
66880;BME280;72009;51.392;10.234;2024-02-26T00:37:44;96721.38;;;1.08;100.00
66880;BME280;72009;51.392;10.234;2024-02-26T00:38:04;96721.09;;;1.09;100.00
66880;BME280;72009;51.392;10.234;2024-02-26T00:38:24;96722.19;;;1.08;100.00
66880;BME280;72009;51.392;10.234;2024-02-26T00:38:45;96724.59;;;1.10;100.00
66880;BME280;72009;51.392;10.234;2024-02-26T00:39:05;96716.47;;;1.10;100.00
66880;BME280;72009;51.392;10.234;2024-02-26T00:39:25;96720.03;;;1.10;100.00
66880;BME280;72009;51.392;10.234;2024-02-26T00:39:45;96718.41;;;1.09;100.00
66880;BME280;72009;51.392;10.234;2024-02-26T00:40:06;96715.69;;;1.09;100.00
66880;BME280;72009;51.392;10.234;2024-02-26T00:40:26;96718.41;;;1.09;100.00
66880;BME280;72009;51.392;10.234;2024-02-26T00:40:47;96716.47;;;1.10;100.00
66880;BME280;72009;51.392;10.234;2024-02-26T00:41:07;96711.06;;;1.10;100.00
66880;BME280;72009;51.392;10.234;2024-02-26T00:41:27;96712.69;;;1.11;100.00
66880;BME280;72009;51.392;10.234;2024-02-26T00:41:48;96717.03;;;1.12;100.00
66880;BME280;72009;51.392;10.234;2024-02-26T00:42:08;96711.63;;;1.12;100.00
66880;BME280;72009;51.392;10.234;2024-02-26T00:42:28;96723.75;;;1.15;100.00
66880;BME280;72009;51.392;10.234;2024-02-26T00:42:49;96710.78;;;1.11;100.00
66880;BME280;72009;51.392;10.234;2024-02-26T00:43:09;96715.13;;;1.13;100.00
66880;BME280;72009;51.392;10.234;2024-02-26T00:43:29;96718.63;;;1.13;100.00
66880;BME280;72009;51.392;10.234;2024-02-26T00:43:49;96710.50;;;1.13;100.00
66880;BME280;72009;51.392;10.234;2024-02-26T00:44:10;96721.06;;;1.15;100.00
66880;BME280;72009;51.392;10.234;2024-02-26T00:44:30;96720.03;;;1.10;100.00
66880;BME280;72009;51.392;10.234;2024-02-26T00:44:50;96722.72;;;1.10;100.00
66880;BME280;72009;51.392;10.234;2024-02-26T00:45:11;96716.47;;;1.10;100.00
66880;BME280;72009;51.392;10.234;2024-02-26T00:45:32;96715.41;;;1.11;100.00
66880;BME280;72009;51.392;10.234;2024-02-26T00:45:52;96715.41;;;1.11;100.00
66880;BME280;72009;51.392;10.234;2024-02-26T00:46:13;96717.59;;;1.09;100.00
66880;BME280;72009;51.392;10.234;2024-02-26T00:46:33;96716.78;;;1.08;100.00
66880;BME280;72009;51.392;10.234;2024-02-26T00:46:53;96714.06;;;1.08;100.00
66880;BME280;72009;51.392;10.234;2024-02-26T00:47:13;96711.34;;;1.08;100.00
66880;BME280;72009;51.392;10.234;2024-02-26T00:47:34;96716.78;;;1.08;100.00
66880;BME280;72009;51.392;10.234;2024-02-26T00:47:54;96708.66;;;1.08;100.00
66880;BME280;72009;51.392;10.234;2024-02-26T00:48:14;96716.47;;;1.10;100.00
66880;BME280;72009;51.392;10.234;2024-02-26T00:48:35;96718.41;;;1.09;100.00
66880;BME280;72009;51.392;10.234;2024-02-26T00:48:55;96717.59;;;1.09;100.00
66880;BME280;72009;51.392;10.234;2024-02-26T00:49:16;96721.38;;;1.08;100.00
66880;BME280;72009;51.392;10.234;2024-02-26T00:49:37;96710.56;;;1.08;100.00
66880;BME280;72009;51.392;10.234;2024-02-26T00:49:57;96716.78;;;1.08;100.00
66880;BME280;72009;51.392;10.234;2024-02-26T00:50:17;96713.25;;;1.08;100.00
66880;BME280;72009;51.392;10.234;2024-02-26T00:50:38;96716.78;;;1.08;100.00
66880;BME280;72009;51.392;10.234;2024-02-26T00:50:58;96710.56;;;1.08;100.00
66880;BME280;72009;51.392;10.234;2024-02-26T00:51:18;96721.09;;;1.09;100.00
66880;BME280;72009;51.392;10.234;2024-02-26T00:51:39;96718.41;;;1.09;100.00
66880;BME280;72009;51.392;10.234;2024-02-26T00:51:59;96718.69;;;1.08;100.00
66880;BME280;72009;51.392;10.234;2024-02-26T00:52:19;96719.19;;;1.10;100.00
66880;BME280;72009;51.392;10.234;2024-02-26T00:52:40;96715.16;;;1.07;100.00
66880;BME280;72009;51.392;10.234;2024-02-26T00:53:01;96720.59;;;1.07;100.00
66880;BME280;72009;51.392;10.234;2024-02-26T00:53:22;96714.34;;;1.07;100.00
66880;BME280;72009;51.392;10.234;2024-02-26T00:53:42;96716.78;;;1.08;100.00
66880;BME280;72009;51.392;10.234;2024-02-26T00:54:02;96712.19;;;1.09;100.00
66880;BME280;72009;51.392;10.234;2024-02-26T00:54:23;96712.97;;;1.09;100.00
66880;BME280;72009;51.392;10.234;2024-02-26T00:54:43;96716.47;;;1.10;100.00
66880;BME280;72009;51.392;10.234;2024-02-26T00:55:04;96710.28;;;1.09;100.00
66880;BME280;72009;51.392;10.234;2024-02-26T00:55:24;96712.97;;;1.09;100.00
66880;BME280;72009;51.392;10.234;2024-02-26T00:55:45;96718.91;;;1.11;100.00
66880;BME280;72009;51.392;10.234;2024-02-26T00:56:05;96712.69;;;1.11;100.00
66880;BME280;72009;51.392;10.234;2024-02-26T00:56:25;96713.50;;;1.11;100.00
66880;BME280;72009;51.392;10.234;2024-02-26T00:56:46;96712.69;;;1.11;100.00
66880;BME280;72009;51.392;10.234;2024-02-26T00:57:06;96715.41;;;1.11;100.00
66880;BME280;72009;51.392;10.234;2024-02-26T00:57:26;96712.69;;;1.11;100.00
66880;BME280;72009;51.392;10.234;2024-02-26T00:57:47;96719.19;;;1.10;100.00
66880;BME280;72009;51.392;10.234;2024-02-26T00:58:07;96711.34;;;1.08;100.00
66880;BME280;72009;51.392;10.234;2024-02-26T00:58:27;96720.81;;;1.11;100.00
66880;BME280;72009;51.392;10.234;2024-02-26T00:58:48;96718.13;;;1.11;100.00
66880;BME280;72009;51.392;10.234;2024-02-26T00:59:08;96716.47;;;1.10;100.00
66880;BME280;72009;51.392;10.234;2024-02-26T00:59:28;96715.41;;;1.11;100.00
66880;BME280;72009;51.392;10.234;2024-02-26T00:59:49;96718.13;;;1.11;100.00
66880;BME280;72009;51.392;10.234;2024-02-26T01:00:09;96725.16;;;1.12;100.00
66880;BME280;72009;51.392;10.234;2024-02-26T01:00:30;96714.59;;;1.10;100.00
66880;BME280;72009;51.392;10.234;2024-02-26T01:00:51;96718.63;;;1.13;100.00
66880;BME280;72009;51.392;10.234;2024-02-26T01:01:11;96724.03;;;1.13;100.00
66880;BME280;72009;51.392;10.234;2024-02-26T01:01:31;96721.88;;;1.15;100.00
66880;BME280;72009;51.392;10.234;2024-02-26T01:01:52;96722.69;;;1.16;100.00
66880;BME280;72009;51.392;10.234;2024-02-26T01:02:12;96723.50;;;1.16;100.00
66880;BME280;72009;51.392;10.234;2024-02-26T01:02:32;96721.88;;;1.15;100.00
66880;BME280;72009;51.392;10.234;2024-02-26T01:02:52;96720.78;;;1.16;100.00
66880;BME280;72009;51.392;10.234;2024-02-26T01:03:13;96724.31;;;1.17;100.00
66880;BME280;72009;51.392;10.234;2024-02-26T01:03:33;96725.09;;;1.17;100.00
66880;BME280;72009;51.392;10.234;2024-02-26T01:03:53;96716.69;;;1.19;100.00
66880;BME280;72009;51.392;10.234;2024-02-26T01:04:14;96724.81;;;1.19;100.00
66880;BME280;72009;51.392;10.234;2024-02-26T01:04:34;96721.31;;;1.18;100.00
66880;BME280;72009;51.392;10.234;2024-02-26T01:04:54;96723.72;;;1.20;100.00
66880;BME280;72009;51.392;10.234;2024-02-26T01:05:15;96723.44;;;1.21;100.00
66880;BME280;72009;51.392;10.234;2024-02-26T01:05:35;96721.03;;;1.20;100.00
66880;BME280;72009;51.392;10.234;2024-02-26T01:05:55;96724.53;;;1.20;100.00
66880;BME280;72009;51.392;10.234;2024-02-26T01:06:16;96720.75;;;1.21;100.00
66880;BME280;72009;51.392;10.234;2024-02-26T01:06:36;96720.75;;;1.21;100.00
66880;BME280;72009;51.392;10.234;2024-02-26T01:06:56;96719.13;;;1.20;100.00
66880;BME280;72009;51.392;10.234;2024-02-26T01:07:16;96722.38;;;1.22;100.00
66880;BME280;72009;51.392;10.234;2024-02-26T01:07:37;96722.38;;;1.22;100.00
66880;BME280;72009;51.392;10.234;2024-02-26T01:07:57;96721.53;;;1.22;100.00
66880;BME280;72009;51.392;10.234;2024-02-26T01:08:18;96720.47;;;1.23;100.00
66880;BME280;72009;51.392;10.234;2024-02-26T01:08:38;96723.16;;;1.23;100.00
66880;BME280;72009;51.392;10.234;2024-02-26T01:08:58;96717.75;;;1.23;100.00
66880;BME280;72009;51.392;10.234;2024-02-26T01:09:19;96721.81;;;1.25;100.00
66880;BME280;72009;51.392;10.234;2024-02-26T01:09:39;96720.69;;;1.26;100.00
66880;BME280;72009;51.392;10.234;2024-02-26T01:09:59;96724.50;;;1.25;100.00
66880;BME280;72009;51.392;10.234;2024-02-26T01:10:20;96725.03;;;1.27;100.00
66880;BME280;72009;51.392;10.234;2024-02-26T01:10:40;96719.59;;;1.27;100.00
66880;BME280;72009;51.392;10.234;2024-02-26T01:11:00;96717.72;;;1.28;100.00
66880;BME280;72009;51.392;10.234;2024-02-26T01:11:21;96727.16;;;1.31;100.00
66880;BME280;72009;51.392;10.234;2024-02-26T01:11:41;96723.66;;;1.30;100.00
66880;BME280;72009;51.392;10.234;2024-02-26T01:12:02;96722.56;;;1.31;100.00
66880;BME280;72009;51.392;10.234;2024-02-26T01:12:22;96721.75;;;1.31;100.00
66880;BME280;72009;51.392;10.234;2024-02-26T01:12:42;96728.50;;;1.33;100.00
66880;BME280;72009;51.392;10.234;2024-02-26T01:13:03;96724.16;;;1.32;100.00
66880;BME280;72009;51.392;10.234;2024-02-26T01:13:23;96723.38;;;1.32;100.00
66880;BME280;72009;51.392;10.234;2024-02-26T01:13:43;96720.94;;;1.30;100.00
66880;BME280;72009;51.392;10.234;2024-02-26T01:14:04;96721.47;;;1.32;100.00
66880;BME280;72009;51.392;10.234;2024-02-26T01:14:24;96723.09;;;1.33;100.00
66880;BME280;72009;51.392;10.234;2024-02-26T01:14:44;96719.56;;;1.33;100.00
66880;BME280;72009;51.392;10.234;2024-02-26T01:15:05;96718.47;;;1.34;100.00
66880;BME280;72009;51.392;10.234;2024-02-26T01:15:25;96723.88;;;1.34;100.00
66880;BME280;72009;51.392;10.234;2024-02-26T01:15:46;96724.72;;;1.34;100.00
66880;BME280;72009;51.392;10.234;2024-02-26T01:16:06;96719.28;;;1.34;100.00
66880;BME280;72009;51.392;10.234;2024-02-26T01:16:27;96723.59;;;1.35;100.00
66880;BME280;72009;51.392;10.234;2024-02-26T01:16:47;96714.97;;;1.33;100.00
66880;BME280;72009;51.392;10.234;2024-02-26T01:17:07;96726.31;;;1.35;100.00
66880;BME280;72009;51.392;10.234;2024-02-26T01:17:27;96720.09;;;1.35;100.00
66880;BME280;72009;51.392;10.234;2024-02-26T01:17:48;96712.75;;;1.35;100.00
66880;BME280;72009;51.392;10.234;2024-02-26T01:18:08;96718.47;;;1.34;100.00
66880;BME280;72009;51.392;10.234;2024-02-26T01:18:28;96722.81;;;1.35;100.00
66880;BME280;72009;51.392;10.234;2024-02-26T01:18:49;96720.09;;;1.35;100.00
66880;BME280;72009;51.392;10.234;2024-02-26T01:19:09;96720.09;;;1.35;100.00
66880;BME280;72009;51.392;10.234;2024-02-26T01:19:29;96722.81;;;1.35;100.00
66880;BME280;72009;51.392;10.234;2024-02-26T01:19:50;96713.88;;;1.34;100.00
66880;BME280;72009;51.392;10.234;2024-02-26T01:20:10;96720.09;;;1.35;100.00
66880;BME280;72009;51.392;10.234;2024-02-26T01:20:31;96710.34;;;1.34;100.00
66880;BME280;72009;51.392;10.234;2024-02-26T01:20:51;96716.59;;;1.34;100.00
66880;BME280;72009;51.392;10.234;2024-02-26T01:21:11;96715.75;;;1.34;100.00
66880;BME280;72009;51.392;10.234;2024-02-26T01:21:31;96718.19;;;1.35;100.00
66880;BME280;72009;51.392;10.234;2024-02-26T01:21:53;96724.72;;;1.34;100.00
66880;BME280;72009;51.392;10.234;2024-02-26T01:22:13;96723.59;;;1.35;100.00
66880;BME280;72009;51.392;10.234;2024-02-26T01:22:33;96720.59;;;1.37;100.00
66880;BME280;72009;51.392;10.234;2024-02-26T01:22:53;96715.47;;;1.35;100.00
66880;BME280;72009;51.392;10.234;2024-02-26T01:23:14;96723.31;;;1.37;100.00
66880;BME280;72009;51.392;10.234;2024-02-26T01:23:34;96720.88;;;1.35;100.00
66880;BME280;72009;51.392;10.234;2024-02-26T01:23:55;96727.13;;;1.36;100.00
66880;BME280;72009;51.392;10.234;2024-02-26T01:24:15;96726.03;;;1.37;100.00
66880;BME280;72009;51.392;10.234;2024-02-26T01:24:35;96721.44;;;1.37;100.00
66880;BME280;72009;51.392;10.234;2024-02-26T01:24:55;96729.56;;;1.37;100.00
66880;BME280;72009;51.392;10.234;2024-02-26T01:25:16;96722.53;;;1.36;100.00
66880;BME280;72009;51.392;10.234;2024-02-26T01:25:36;96713.59;;;1.36;100.00
66880;BME280;72009;51.392;10.234;2024-02-26T01:25:57;96717.63;;;1.38;100.00
66880;BME280;72009;51.392;10.234;2024-02-26T01:26:17;96728.19;;;1.40;100.00
66880;BME280;72009;51.392;10.234;2024-02-26T01:26:37;96724.66;;;1.39;100.00
66880;BME280;72009;51.392;10.234;2024-02-26T01:26:57;96718.16;;;1.40;100.00
66880;BME280;72009;51.392;10.234;2024-02-26T01:27:18;96711.09;;;1.39;100.00
66880;BME280;72009;51.392;10.234;2024-02-26T01:27:39;96719.78;;;1.41;100.00
66880;BME280;72009;51.392;10.234;2024-02-26T01:27:59;96717.06;;;1.41;100.00
66880;BME280;72009;51.392;10.234;2024-02-26T01:28:19;96714.38;;;1.41;100.00
66880;BME280;72009;51.392;10.234;2024-02-26T01:28:40;96711.38;;;1.43;100.00
66880;BME280;72009;51.392;10.234;2024-02-26T01:29:00;96716.78;;;1.43;100.00
66880;BME280;72009;51.392;10.234;2024-02-26T01:29:20;96712.44;;;1.42;100.00
66880;BME280;72009;51.392;10.234;2024-02-26T01:29:41;96714.38;;;1.41;100.00
66880;BME280;72009;51.392;10.234;2024-02-26T01:30:05;96711.94;;;1.40;100.00
66880;BME280;72009;51.392;10.234;2024-02-26T01:30:25;96709.47;;;1.38;100.00
66880;BME280;72009;51.392;10.234;2024-02-26T01:30:46;96713.81;;;1.39;100.00
66880;BME280;72009;51.392;10.234;2024-02-26T01:31:06;96715.72;;;1.39;100.00
66880;BME280;72009;51.392;10.234;2024-02-26T01:31:26;96713.59;;;1.36;100.00
66880;BME280;72009;51.392;10.234;2024-02-26T01:31:46;96711.69;;;1.36;100.00
66880;BME280;72009;51.392;10.234;2024-02-26T01:32:07;96711.16;;;1.34;100.00
66880;BME280;72009;51.392;10.234;2024-02-26T01:32:27;96711.16;;;1.34;100.00
66880;BME280;72009;51.392;10.234;2024-02-26T01:32:48;96707.91;;;1.32;100.00
66880;BME280;72009;51.392;10.234;2024-02-26T01:33:08;96707.13;;;1.32;100.00
66880;BME280;72009;51.392;10.234;2024-02-26T01:33:28;96716.88;;;1.33;100.00
66880;BME280;72009;51.392;10.234;2024-02-26T01:33:48;96711.44;;;1.33;100.00
66880;BME280;72009;51.392;10.234;2024-02-26T01:34:09;96712.53;;;1.32;100.00
66880;BME280;72009;51.392;10.234;2024-02-26T01:34:29;96721.19;;;1.34;100.00
66880;BME280;72009;51.392;10.234;2024-02-26T01:34:49;96712.25;;;1.33;100.00
66880;BME280;72009;51.392;10.234;2024-02-26T01:35:10;96711.16;;;1.34;100.00
66880;BME280;72009;51.392;10.234;2024-02-26T01:35:30;96711.16;;;1.34;100.00
66880;BME280;72009;51.392;10.234;2024-02-26T01:35:50;96711.97;;;1.35;100.00
66880;BME280;72009;51.392;10.234;2024-02-26T01:36:10;96713.88;;;1.34;100.00
66880;BME280;72009;51.392;10.234;2024-02-26T01:36:31;96712.47;;;1.37;100.00
66880;BME280;72009;51.392;10.234;2024-02-26T01:36:51;96719.53;;;1.38;100.00
66880;BME280;72009;51.392;10.234;2024-02-26T01:37:11;96708.97;;;1.36;100.00
66880;BME280;72009;51.392;10.234;2024-02-26T01:37:32;96707.06;;;1.37;100.00
66880;BME280;72009;51.392;10.234;2024-02-26T01:37:52;96708.69;;;1.38;100.00
66880;BME280;72009;51.392;10.234;2024-02-26T01:38:12;96718.72;;;1.37;100.00
66880;BME280;72009;51.392;10.234;2024-02-26T01:38:33;96711.94;;;1.40;100.00
66880;BME280;72009;51.392;10.234;2024-02-26T01:38:53;96715.72;;;1.39;100.00
66880;BME280;72009;51.392;10.234;2024-02-26T01:39:13;96709.78;;;1.37;100.00
66880;BME280;72009;51.392;10.234;2024-02-26T01:39:34;96713.31;;;1.37;100.00
66880;BME280;72009;51.392;10.234;2024-02-26T01:39:54;96718.44;;;1.39;100.00
66880;BME280;72009;51.392;10.234;2024-02-26T01:40:14;96710.59;;;1.37;100.00
66880;BME280;72009;51.392;10.234;2024-02-26T01:40:35;96701.63;;;1.37;100.00
66880;BME280;72009;51.392;10.234;2024-02-26T01:40:55;96708.97;;;1.36;100.00
66880;BME280;72009;51.392;10.234;2024-02-26T01:41:15;96710.06;;;1.35;100.00
66880;BME280;72009;51.392;10.234;2024-02-26T01:41:36;96709.25;;;1.35;100.00
66880;BME280;72009;51.392;10.234;2024-02-26T01:41:56;96705.22;;;1.32;100.00
66880;BME280;72009;51.392;10.234;2024-02-26T01:42:16;96707.91;;;1.32;100.00
66880;BME280;72009;51.392;10.234;2024-02-26T01:42:40;96702.78;;;1.31;100.00
66880;BME280;72009;51.392;10.234;2024-02-26T01:43:00;96696.56;;;1.30;100.00
66880;BME280;72009;51.392;10.234;2024-02-26T01:43:20;96701.97;;;1.30;100.00
66880;BME280;72009;51.392;10.234;2024-02-26T01:43:41;96707.16;;;1.26;100.00
66880;BME280;72009;51.392;10.234;2024-02-26T01:44:01;96704.44;;;1.26;100.00
66880;BME280;72009;51.392;10.234;2024-02-26T01:44:21;96705.53;;;1.25;100.00
66880;BME280;72009;51.392;10.234;2024-02-26T01:44:42;96710.13;;;1.25;100.00
66880;BME280;72009;51.392;10.234;2024-02-26T01:45:02;96708.25;;;1.25;100.00
66880;BME280;72009;51.392;10.234;2024-02-26T01:45:23;96707.72;;;1.23;100.00
66880;BME280;72009;51.392;10.234;2024-02-26T01:45:43;96706.91;;;1.23;100.00
66880;BME280;72009;51.392;10.234;2024-02-26T01:46:04;96702.59;;;1.22;100.00
66880;BME280;72009;51.392;10.234;2024-02-26T01:46:25;96704.50;;;1.21;100.00
66880;BME280;72009;51.392;10.234;2024-02-26T01:46:45;96701.78;;;1.21;100.00